Time;durP1;ratioP1;P1;durP2;ratioP2;P2;SDS_P1;SDS_P2;PMS_P1;PMS_P2;Temp;Humidity;BMP_temperature;BMP_pressure;BME280_temperature;BME280_humidity;BME280_pressure;Samples;Min_cycle;Max_cycle;Signal;HPM_P1;HPM_P2
2021/01/28 00:00:31;;;;;;;20.58;12.80;;;;;;;;;;5113327;28;20200;-56
2021/01/28 00:02:58;;;;;;;22.08;13.50;;;;;;;;;;5113361;28;20571;-56
2021/01/28 00:05:25;;;;;;;20.45;13.38;;;;;;;;;;5113255;28;20227;-57
2021/01/28 00:07:53;;;;;;;25.20;15.30;;;;;;;;;;5113612;28;20211;-56
2021/01/28 00:10:20;;;;;;;18.83;12.65;;;;;;;;;;5113734;28;20199;-56
2021/01/28 00:12:47;;;;;;;18.85;12.18;;;;;;;;;;5113633;28;20617;-55
2021/01/28 00:15:14;;;;;;;21.52;12.77;;;;;;;;;;5113363;28;20240;-56
2021/01/28 00:17:41;;;;;;;22.20;13.55;;;;;;;;;;5113580;28;20204;-56
2021/01/28 00:20:10;;;;;;;23.92;14.93;;;;;;;;;;5113557;28;20199;-56
2021/01/28 00:22:37;;;;;;;20.90;13.63;;;;;;;;;;5114382;28;20571;-56
2021/01/28 00:25:06;;;;;;;24.33;14.90;;;;;;;;;;5117643;28;20230;-56
2021/01/28 00:27:32;;;;;;;22.15;14.25;;;;;;;;;;5117575;28;20219;-56
2021/01/28 00:29:59;;;;;;;22.52;13.85;;;;;;;;;;5117343;28;20195;-56
2021/01/28 00:32:26;;;;;;;21.23;13.20;;;;;;;;;;5117668;28;20226;-56
2021/01/28 00:34:53;;;;;;;23.70;13.80;;;;;;;;;;5117544;28;20284;-57
2021/01/28 00:37:19;;;;;;;25.02;14.60;;;;;;;;;;5117333;28;20203;-56
2021/01/28 00:39:46;;;;;;;22.90;14.25;;;;;;;;;;5117588;28;20203;-56
2021/01/28 00:42:14;;;;;;;20.13;12.43;;;;;;;;;;5117458;28;20200;-56
2021/01/28 00:44:40;;;;;;;22.67;14.48;;;;;;;;;;5117097;28;20252;-56
2021/01/28 00:47:07;;;;;;;28.60;15.52;;;;;;;;;;5118153;28;20206;-56
2021/01/28 00:49:34;;;;;;;24.27;14.95;;;;;;;;;;5117469;28;20223;-56
2021/01/28 00:52:01;;;;;;;29.35;16.10;;;;;;;;;;5117359;28;20207;-56
2021/01/28 00:54:27;;;;;;;29.00;17.10;;;;;;;;;;5117027;28;20780;-57
2021/01/28 00:56:54;;;;;;;28.77;16.55;;;;;;;;;;5117185;28;20200;-57
2021/01/28 00:59:22;;;;;;;26.95;16.17;;;;;;;;;;5117176;28;20195;-57
2021/01/28 01:01:48;;;;;;;25.25;14.60;;;;;;;;;;5116799;28;20208;-57
2021/01/28 01:04:15;;;;;;;30.13;17.55;;;;;;;;;;5117267;28;20227;-55
2021/01/28 01:06:42;;;;;;;27.95;16.15;;;;;;;;;;5117006;28;20204;-56
2021/01/28 01:09:09;;;;;;;29.45;17.65;;;;;;;;;;5116512;28;20706;-56
2021/01/28 01:11:35;;;;;;;31.77;17.90;;;;;;;;;;5116544;28;20204;-56
2021/01/28 01:14:02;;;;;;;28.60;16.45;;;;;;;;;;5116811;28;20216;-56
2021/01/28 01:16:30;;;;;;;27.25;16.30;;;;;;;;;;5116400;28;20203;-56
2021/01/28 01:18:56;;;;;;;31.70;18.77;;;;;;;;;;5116568;28;20200;-56
2021/01/28 01:21:23;;;;;;;27.65;15.35;;;;;;;;;;5116662;28;20200;-56
2021/01/28 01:23:50;;;;;;;31.27;17.48;;;;;;;;;;5116617;28;20216;-57
2021/01/28 01:26:16;;;;;;;28.67;17.63;;;;;;;;;;5116374;28;20728;-57
2021/01/28 01:28:43;;;;;;;33.55;18.02;;;;;;;;;;5116214;28;20226;-56
2021/01/28 01:31:10;;;;;;;30.70;16.90;;;;;;;;;;5116662;28;20200;-57
2021/01/28 01:33:37;;;;;;;31.35;17.13;;;;;;;;;;5116465;28;20199;-58
2021/01/28 01:36:05;;;;;;;35.13;18.23;;;;;;;;;;5115541;28;20199;-57
2021/01/28 01:38:31;;;;;;;32.08;17.55;;;;;;;;;;5116336;28;20541;-57
2021/01/28 01:40:59;;;;;;;29.48;16.85;;;;;;;;;;5116322;28;20207;-57
2021/01/28 01:43:27;;;;;;;31.30;17.67;;;;;;;;;;5116490;28;20199;-57
2021/01/28 01:45:55;;;;;;;30.30;16.55;;;;;;;;;;5116426;28;20227;-56
2021/01/28 01:48:22;;;;;;;31.58;15.95;;;;;;;;;;5116296;28;20292;-57
2021/01/28 01:50:57;;;;;;;35.25;16.63;;;;;;;;;;5115946;28;20204;-57
2021/01/28 01:53:26;;;;;;;30.65;16.55;;;;;;;;;;5116926;28;20202;-57
2021/01/28 01:55:54;;;;;;;28.63;16.25;;;;;;;;;;5115861;28;20219;-57
2021/01/28 01:58:29;;;;;;;28.05;16.83;;;;;;;;;;5115703;28;20203;-57
2021/01/28 02:00:55;;;;;;;25.88;15.55;;;;;;;;;;5115945;28;20188;-57
2021/01/28 02:03:22;;;;;;;27.27;15.95;;;;;;;;;;5115897;28;20204;-57
2021/01/28 02:05:56;;;;;;;32.30;17.92;;;;;;;;;;5116637;28;20292;-56
2021/01/28 02:08:24;;;;;;;23.77;14.05;;;;;;;;;;5115932;28;20207;-57
2021/01/28 02:10:51;;;;;;;29.60;15.73;;;;;;;;;;5115798;28;20251;-57
2021/01/28 02:13:18;;;;;;;26.42;14.60;;;;;;;;;;5115670;28;20685;-56
2021/01/28 02:15:45;;;;;;;28.20;15.43;;;;;;;;;;5115280;28;20238;-56
2021/01/28 02:18:11;;;;;;;20.85;13.00;;;;;;;;;;5115515;28;20215;-57
2021/01/28 02:20:54;;;;;;;21.10;13.13;;;;;;;;;;5115711;28;20210;-57
2021/01/28 02:23:29;;;;;;;22.67;13.55;;;;;;;;;;5115502;28;20253;-57
2021/01/28 02:25:56;;;;;;;21.73;13.82;;;;;;;;;;5115475;28;20286;-57
2021/01/28 02:28:23;;;;;;;19.88;12.35;;;;;;;;;;5115432;28;20219;-57
2021/01/28 02:30:53;;;;;;;23.98;12.18;;;;;;;;;;5115616;28;20204;-57
2021/01/28 02:33:36;;;;;;;19.90;11.77;;;;;;;;;;5115446;28;20200;-57
2021/01/28 02:36:03;;;;;;;20.55;13.48;;;;;;;;;;5115428;28;20191;-57
2021/01/28 02:38:29;;;;;;;21.52;13.30;;;;;;;;;;5114974;28;20327;-57
2021/01/28 02:40:57;;;;;;;20.67;12.48;;;;;;;;;;5114865;28;20203;-57
2021/01/28 02:43:24;;;;;;;18.40;11.98;;;;;;;;;;5114856;28;20210;-56
2021/01/28 02:46:00;;;;;;;19.75;12.07;;;;;;;;;;5114146;28;20269;-56
2021/01/28 02:48:27;;;;;;;21.35;12.45;;;;;;;;;;5114825;28;20200;-56
2021/01/28 02:50:54;;;;;;;18.73;11.45;;;;;;;;;;5114627;28;20256;-56
2021/01/28 02:53:21;;;;;;;19.33;12.40;;;;;;;;;;5114827;28;20199;-56
2021/01/28 02:55:47;;;;;;;17.73;11.13;;;;;;;;;;5114861;28;20223;-56
2021/01/28 02:58:15;;;;;;;20.67;12.52;;;;;;;;;;5114554;28;20199;-57
2021/01/28 03:00:42;;;;;;;24.10;12.90;;;;;;;;;;5114935;28;20195;-56
2021/01/28 03:03:10;;;;;;;22.35;12.98;;;;;;;;;;5114797;28;20200;-56
2021/01/28 03:05:37;;;;;;;25.73;12.52;;;;;;;;;;5114416;28;20223;-57
2021/01/28 03:08:04;;;;;;;25.67;13.23;;;;;;;;;;5114405;28;20212;-56
2021/01/28 03:10:30;;;;;;;20.25;12.70;;;;;;;;;;5114611;28;20636;-56
2021/01/28 03:12:57;;;;;;;19.80;12.38;;;;;;;;;;5114719;28;20252;-56
2021/01/28 03:15:26;;;;;;;23.02;13.32;;;;;;;;;;5114117;28;20227;-56
2021/01/28 03:17:53;;;;;;;19.35;13.57;;;;;;;;;;5114026;28;20667;-56
2021/01/28 03:20:21;;;;;;;21.67;12.93;;;;;;;;;;5114101;28;20204;-56
2021/01/28 03:22:47;;;;;;;21.70;12.93;;;;;;;;;;5114467;28;20207;-56
2021/01/28 03:25:15;;;;;;;19.70;12.48;;;;;;;;;;5115075;28;20215;-56
2021/01/28 03:27:42;;;;;;;18.33;11.85;;;;;;;;;;5114305;28;20248;-56
2021/01/28 03:30:09;;;;;;;21.02;13.32;;;;;;;;;;5114388;28;20624;-56
2021/01/28 03:32:37;;;;;;;22.27;13.07;;;;;;;;;;5113858;28;20569;-56
2021/01/28 03:35:04;;;;;;;20.15;12.00;;;;;;;;;;5114126;28;20290;-56
2021/01/28 03:37:31;;;;;;;20.65;13.65;;;;;;;;;;5114095;28;20202;-56
2021/01/28 03:39:58;;;;;;;23.73;13.60;;;;;;;;;;5114051;28;20210;-56
2021/01/28 03:42:25;;;;;;;24.00;13.60;;;;;;;;;;5114018;28;20204;-56
2021/01/28 03:44:51;;;;;;;22.50;13.38;;;;;;;;;;5113508;28;20224;-57
2021/01/28 03:47:18;;;;;;;23.20;13.25;;;;;;;;;;5114410;28;20196;-57
2021/01/28 03:49:46;;;;;;;23.13;13.75;;;;;;;;;;5113471;28;20269;-57
2021/01/28 03:52:12;;;;;;;21.98;13.10;;;;;;;;;;5113608;28;20217;-57
2021/01/28 03:54:39;;;;;;;23.88;13.35;;;;;;;;;;5114121;28;20277;-57
2021/01/28 03:57:06;;;;;;;20.55;12.90;;;;;;;;;;5114418;28;20571;-57
2021/01/28 03:59:33;;;;;;;21.02;13.77;;;;;;;;;;5114486;28;20686;-57
2021/01/28 04:02:00;;;;;;;23.45;13.90;;;;;;;;;;5114281;28;20217;-57
2021/01/28 04:07:39;;;;;;;20.23;12.00;;;;;;;;;;5132553;27;20584;-58
2021/01/28 04:10:06;;;;;;;21.10;13.40;;;;;;;;;;5132283;27;20198;-58
2021/01/28 04:12:33;;;;;;;19.75;12.30;;;;;;;;;;5131422;27;20682;-59
2021/01/28 04:15:00;;;;;;;21.45;13.30;;;;;;;;;;5131241;27;20229;-57
2021/01/28 04:17:27;;;;;;;24.10;12.95;;;;;;;;;;5131115;27;20240;-57
2021/01/28 04:19:54;;;;;;;17.65;10.70;;;;;;;;;;5132566;27;20202;-55
2021/01/28 04:22:20;;;;;;;17.58;12.65;;;;;;;;;;5131319;27;20203;-57
2021/01/28 04:24:48;;;;;;;18.38;11.65;;;;;;;;;;5131531;27;20223;-57
2021/01/28 04:27:15;;;;;;;19.83;12.50;;;;;;;;;;5132062;27;20218;-57
2021/01/28 04:29:43;;;;;;;22.23;12.98;;;;;;;;;;5131839;27;20199;-57
2021/01/28 04:32:10;;;;;;;18.65;11.57;;;;;;;;;;5131046;27;20203;-57
2021/01/28 04:34:37;;;;;;;19.13;13.05;;;;;;;;;;5131060;27;20226;-57
2021/01/28 04:37:04;;;;;;;19.75;11.32;;;;;;;;;;5130917;27;20195;-58
2021/01/28 04:39:31;;;;;;;20.77;12.43;;;;;;;;;;5131422;27;20206;-57
2021/01/28 04:41:59;;;;;;;20.30;11.75;;;;;;;;;;5131226;27;20501;-56
2021/01/28 04:44:26;;;;;;;18.73;13.10;;;;;;;;;;5131734;27;20225;-57
2021/01/28 04:46:54;;;;;;;17.60;11.63;;;;;;;;;;5130916;27;20211;-58
2021/01/28 04:49:22;;;;;;;19.30;12.30;;;;;;;;;;5130823;27;20210;-57
2021/01/28 04:51:57;;;;;;;16.60;10.25;;;;;;;;;;5130962;27;20200;-56
2021/01/28 04:54:25;;;;;;;17.75;11.32;;;;;;;;;;5134198;27;20587;-57
2021/01/28 04:56:52;;;;;;;18.08;11.63;;;;;;;;;;5131272;27;20192;-57
2021/01/28 04:59:22;;;;;;;20.13;12.95;;;;;;;;;;5130708;27;20572;-57
2021/01/28 05:01:49;;;;;;;20.38;13.30;;;;;;;;;;5131062;27;20187;-57
2021/01/28 05:04:18;;;;;;;20.58;13.20;;;;;;;;;;5131211;27;20215;-58
2021/01/28 05:06:45;;;;;;;16.92;11.70;;;;;;;;;;5130302;27;20223;-59
2021/01/28 05:09:12;;;;;;;25.38;14.13;;;;;;;;;;5129977;27;20195;-58
2021/01/28 05:11:40;;;;;;;21.40;12.68;;;;;;;;;;5131009;27;20195;-56
2021/01/28 05:14:16;;;;;;;20.90;12.95;;;;;;;;;;5132942;27;20283;-57
2021/01/28 05:16:46;;;;;;;19.90;12.55;;;;;;;;;;5131334;27;20198;-57
2021/01/28 05:19:25;;;;;;;18.95;11.55;;;;;;;;;;5116968;28;20199;-58
2021/01/28 05:22:04;;;;;;;22.38;12.20;;;;;;;;;;5117118;28;20191;-57
2021/01/28 05:24:33;;;;;;;21.15;11.23;;;;;;;;;;5116459;28;20227;-56
2021/01/28 05:27:10;;;;;;;21.35;12.40;;;;;;;;;;5116169;28;20215;-57
2021/01/28 05:29:39;;;;;;;15.07;10.85;;;;;;;;;;5117735;28;20240;-56
2021/01/28 05:32:11;;;;;;;15.70;11.57;;;;;;;;;;5117587;28;20232;-57
2021/01/28 05:34:38;;;;;;;17.60;11.73;;;;;;;;;;5116698;28;20775;-57
2021/01/28 05:37:06;;;;;;;22.45;10.85;;;;;;;;;;5117298;28;20218;-57
2021/01/28 05:39:34;;;;;;;13.50;10.93;;;;;;;;;;5116721;28;20571;-57
2021/01/28 05:42:06;;;;;;;17.55;10.73;;;;;;;;;;5116474;28;20203;-57
2021/01/28 05:44:34;;;;;;;16.77;10.80;;;;;;;;;;5116858;28;20215;-57
2021/01/28 05:47:02;;;;;;;13.38;10.55;;;;;;;;;;5116396;28;20343;-58
2021/01/28 05:49:30;;;;;;;14.82;10.27;;;;;;;;;;5116138;28;20204;-57
2021/01/28 05:51:57;;;;;;;16.00;11.02;;;;;;;;;;5117146;28;20206;-57
2021/01/28 05:54:28;;;;;;;16.30;10.70;;;;;;;;;;5116252;28;20599;-57
2021/01/28 05:56:59;;;;;;;19.63;10.65;;;;;;;;;;5116569;28;20260;-57
2021/01/28 05:59:32;;;;;;;17.60;11.10;;;;;;;;;;5116401;28;20191;-57
2021/01/28 06:02:12;;;;;;;13.32;11.05;;;;;;;;;;5115993;28;20188;-59
2021/01/28 06:04:47;;;;;;;13.65;10.25;;;;;;;;;;5115964;28;20219;-58
2021/01/28 06:07:38;;;;;;;17.77;11.00;;;;;;;;;;5115773;28;20599;-58
2021/01/28 06:10:19;;;;;;;12.93;10.50;;;;;;;;;;5116216;28;20180;-57
2021/01/28 06:13:00;;;;;;;18.20;10.82;;;;;;;;;;5082171;28;20200;-57
2021/01/28 06:15:48;;;;;;;12.55;8.23;;;;;;;;;;5115197;28;20222;-57
2021/01/28 06:18:39;;;;;;;10.93;9.52;;;;;;;;;;5110387;27;20791;-57
2021/01/28 06:21:21;;;;;;;15.00;10.00;;;;;;;;;;5115226;28;20186;-57
2021/01/28 06:24:07;;;;;;;15.18;11.02;;;;;;;;;;5113017;28;20256;-56
2021/01/28 06:26:39;;;;;;;13.93;9.85;;;;;;;;;;5115561;28;20206;-58
2021/01/28 06:29:31;;;;;;;12.75;10.07;;;;;;;;;;5114042;28;20209;-58
2021/01/28 06:32:09;;;;;;;15.70;10.75;;;;;;;;;;5115340;28;20562;-59
2021/01/28 06:34:51;;;;;;;13.70;9.60;;;;;;;;;;5115283;28;20268;-58
2021/01/28 06:37:24;;;;;;;14.45;10.73;;;;;;;;;;5117051;28;20176;-58
2021/01/28 06:39:52;;;;;;;13.52;8.98;;;;;;;;;;5115935;28;20202;-57
2021/01/28 06:42:23;;;;;;;13.95;8.88;;;;;;;;;;5116793;28;20574;-58
2021/01/28 06:44:54;;;;;;;14.63;9.60;;;;;;;;;;5115524;28;20244;-58
2021/01/28 06:47:23;;;;;;;12.73;9.25;;;;;;;;;;5115419;28;20257;-59
2021/01/28 06:49:54;;;;;;;13.38;9.35;;;;;;;;;;5115941;28;20199;-58
2021/01/28 06:52:34;;;;;;;16.63;9.63;;;;;;;;;;5118661;28;20224;-58
2021/01/28 06:55:04;;;;;;;16.85;9.80;;;;;;;;;;5116939;28;20231;-58
2021/01/28 06:57:35;;;;;;;14.45;10.48;;;;;;;;;;5117903;28;20190;-56
2021/01/28 07:00:06;;;;;;;15.98;9.57;;;;;;;;;;5115919;28;20180;-59
2021/01/28 07:02:44;;;;;;;13.68;8.88;;;;;;;;;;5116539;27;20275;-57
2021/01/28 07:05:16;;;;;;;11.35;9.00;;;;;;;;;;5115372;28;20657;-58
2021/01/28 07:07:46;;;;;;;11.20;8.43;;;;;;;;;;5115909;28;20690;-58
2021/01/28 07:10:16;;;;;;;11.30;8.20;;;;;;;;;;5116618;28;20228;-58
2021/01/28 07:12:45;;;;;;;18.67;8.52;;;;;;;;;;5114877;28;20241;-58
2021/01/28 07:15:13;;;;;;;11.48;8.43;;;;;;;;;;5116049;28;20269;-56
2021/01/28 07:17:41;;;;;;;12.63;8.48;;;;;;;;;;5115891;28;20196;-58
2021/01/28 07:20:14;;;;;;;9.15;7.57;;;;;;;;;;5115597;28;20225;-58
2021/01/28 07:22:41;;;;;;;12.02;8.05;;;;;;;;;;5115428;28;20191;-58
2021/01/28 07:25:24;;;;;;;12.13;8.95;;;;;;;;;;5114919;28;20711;-57
2021/01/28 07:27:55;;;;;;;11.68;8.68;;;;;;;;;;5114409;28;20690;-56
2021/01/28 07:30:34;;;;;;;15.80;8.98;;;;;;;;;;5114799;28;20734;-57
2021/01/28 07:33:01;;;;;;;12.10;9.30;;;;;;;;;;5115348;28;20643;-58
2021/01/28 07:35:35;;;;;;;12.35;8.95;;;;;;;;;;5115465;28;20715;-57
2021/01/28 07:38:17;;;;;;;13.82;9.10;;;;;;;;;;5114463;28;20261;-57
2021/01/28 07:40:58;;;;;;;13.38;9.57;;;;;;;;;;5113663;28;20211;-57
2021/01/28 07:43:25;;;;;;;11.65;9.27;;;;;;;;;;5113881;28;20620;-57
2021/01/28 07:46:10;;;;;;;11.20;9.43;;;;;;;;;;5113510;28;20227;-57
2021/01/28 07:48:37;;;;;;;14.95;9.75;;;;;;;;;;5115293;28;20240;-57
2021/01/28 07:51:22;;;;;;;15.32;9.98;;;;;;;;;;5114626;28;20569;-57
2021/01/28 07:53:50;;;;;;;13.68;8.75;;;;;;;;;;5114501;28;20226;-58
2021/01/28 07:56:36;;;;;;;12.25;8.93;;;;;;;;;;5114075;28;20200;-58
2021/01/28 07:59:05;;;;;;;12.52;8.63;;;;;;;;;;5114275;28;20214;-57
2021/01/28 08:01:31;;;;;;;11.65;9.20;;;;;;;;;;5114091;28;20212;-58
2021/01/28 08:04:02;;;;;;;15.25;9.98;;;;;;;;;;5114150;28;20565;-57
2021/01/28 08:06:30;;;;;;;12.57;9.23;;;;;;;;;;5113633;28;20353;-57
2021/01/28 08:09:04;;;;;;;11.95;9.30;;;;;;;;;;5113951;28;20195;-58
2021/01/28 08:11:31;;;;;;;10.73;8.20;;;;;;;;;;5113605;28;20226;-57
2021/01/28 08:13:58;;;;;;;11.13;8.10;;;;;;;;;;5114496;28;20272;-56
2021/01/28 08:16:26;;;;;;;10.52;8.13;;;;;;;;;;5114570;28;20196;-57
2021/01/28 08:19:04;;;;;;;10.43;8.95;;;;;;;;;;5113758;28;20199;-57
2021/01/28 08:21:31;;;;;;;9.32;7.75;;;;;;;;;;5113556;28;20203;-56
2021/01/28 08:24:09;;;;;;;11.73;8.30;;;;;;;;;;5113639;28;20575;-57
2021/01/28 08:26:38;;;;;;;10.38;7.47;;;;;;;;;;5113753;28;20203;-58
2021/01/28 08:29:07;;;;;;;9.25;8.00;;;;;;;;;;5114353;28;20206;-58
2021/01/28 08:31:38;;;;;;;8.63;7.20;;;;;;;;;;5113672;28;20207;-58
2021/01/28 08:34:06;;;;;;;12.93;8.13;;;;;;;;;;5113265;28;20710;-58
2021/01/28 08:36:34;;;;;;;10.38;7.63;;;;;;;;;;5113728;28;20196;-58
2021/01/28 08:39:08;;;;;;;8.50;6.63;;;;;;;;;;5113609;28;20196;-58
2021/01/28 08:41:35;;;;;;;8.70;7.05;;;;;;;;;;5117273;28;20260;-58
2021/01/28 08:44:03;;;;;;;9.95;7.00;;;;;;;;;;5117940;28;20298;-58
2021/01/28 08:46:30;;;;;;;10.35;7.80;;;;;;;;;;5117434;28;20223;-57
2021/01/28 08:49:06;;;;;;;9.23;7.03;;;;;;;;;;5114831;28;20249;-58
2021/01/28 08:51:35;;;;;;;8.30;6.85;;;;;;;;;;5114361;28;20195;-58
2021/01/28 08:54:04;;;;;;;9.63;6.35;;;;;;;;;;5116045;28;20220;-59
2021/01/28 08:56:33;;;;;;;12.15;6.63;;;;;;;;;;5117765;28;20191;-58
2021/01/28 08:59:02;;;;;;;10.65;6.93;;;;;;;;;;5118573;28;20199;-57
2021/01/28 09:01:29;;;;;;;11.80;6.97;;;;;;;;;;5118157;28;20663;-59
2021/01/28 09:04:01;;;;;;;8.88;6.53;;;;;;;;;;5119039;28;20219;-58
2021/01/28 09:06:29;;;;;;;8.90;7.40;;;;;;;;;;5117315;28;20235;-58
2021/01/28 09:09:00;;;;;;;7.45;6.03;;;;;;;;;;5117600;28;20199;-59
2021/01/28 09:11:28;;;;;;;8.20;6.60;;;;;;;;;;5117049;28;20208;-58
2021/01/28 09:14:06;;;;;;;9.93;6.60;;;;;;;;;;5116993;28;20223;-58
2021/01/28 09:16:32;;;;;;;10.48;6.55;;;;;;;;;;5117179;28;20294;-61
2021/01/28 09:19:08;;;;;;;8.00;6.40;;;;;;;;;;5116392;28;20225;-58
2021/01/28 09:21:40;;;;;;;9.27;6.78;;;;;;;;;;5117166;28;20240;-58
2021/01/28 09:24:18;;;;;;;7.65;6.30;;;;;;;;;;5116418;28;20220;-57
2021/01/28 09:26:45;;;;;;;9.77;7.03;;;;;;;;;;5115938;28;20211;-57
2021/01/28 09:29:16;;;;;;;9.35;6.60;;;;;;;;;;5115905;28;20225;-57
2021/01/28 09:31:43;;;;;;;12.52;7.38;;;;;;;;;;5116317;28;20184;-57
2021/01/28 09:34:14;;;;;;;11.77;6.70;;;;;;;;;;5116701;28;20227;-59
2021/01/28 09:36:42;;;;;;;9.90;6.85;;;;;;;;;;5117391;28;20593;-58
2021/01/28 09:39:13;;;;;;;13.88;8.65;;;;;;;;;;5117556;28;20204;-57
2021/01/28 09:41:41;;;;;;;9.82;7.50;;;;;;;;;;5117319;28;20188;-56
2021/01/28 09:44:28;;;;;;;10.32;8.52;;;;;;;;;;5118314;28;20216;-60
2021/01/28 09:47:06;;;;;;;17.85;8.90;;;;;;;;;;5116451;28;20589;-55
2021/01/28 09:49:33;;;;;;;13.55;10.18;;;;;;;;;;5117048;28;20249;-59
2021/01/28 09:52:00;;;;;;;14.70;9.93;;;;;;;;;;5115497;28;20744;-58
2021/01/28 09:54:33;;;;;;;12.55;9.68;;;;;;;;;;5115372;28;20216;-58
2021/01/28 09:57:00;;;;;;;11.88;9.30;;;;;;;;;;5115686;28;20176;-58
2021/01/28 09:59:27;;;;;;;12.98;9.98;;;;;;;;;;5115255;28;20692;-58
2021/01/28 10:01:53;;;;;;;11.35;8.15;;;;;;;;;;5115122;28;20268;-59
2021/01/28 10:04:20;;;;;;;14.18;9.98;;;;;;;;;;5115044;28;20220;-57
2021/01/28 10:06:47;;;;;;;14.20;9.23;;;;;;;;;;5115362;28;20215;-57
2021/01/28 10:09:15;;;;;;;9.70;7.32;;;;;;;;;;5115384;28;20199;-57
2021/01/28 10:11:41;;;;;;;12.32;8.05;;;;;;;;;;5115270;28;20253;-58
2021/01/28 10:14:08;;;;;;;13.05;7.22;;;;;;;;;;5115125;28;20269;-56
2021/01/28 10:16:35;;;;;;;9.20;6.30;;;;;;;;;;5115008;27;20200;-58
2021/01/28 10:19:13;;;;;;;11.88;6.85;;;;;;;;;;5115033;28;20207;-58
2021/01/28 10:21:41;;;;;;;8.48;6.60;;;;;;;;;;5115793;28;20183;-58
2021/01/28 10:24:08;;;;;;;8.45;6.10;;;;;;;;;;5115060;28;20703;-57
2021/01/28 10:26:36;;;;;;;8.23;6.45;;;;;;;;;;5114790;28;20215;-57
2021/01/28 10:29:03;;;;;;;8.60;6.40;;;;;;;;;;5114655;28;20618;-59
2021/01/28 10:31:30;;;;;;;10.10;7.00;;;;;;;;;;5114551;28;20701;-58
2021/01/28 10:33:56;;;;;;;13.90;7.88;;;;;;;;;;5114867;28;20223;-58
2021/01/28 10:36:23;;;;;;;12.52;8.15;;;;;;;;;;5114581;28;20192;-58
2021/01/28 10:38:50;;;;;;;9.75;6.97;;;;;;;;;;5114436;28;20672;-57
2021/01/28 10:41:17;;;;;;;10.43;7.15;;;;;;;;;;5114745;28;20196;-57
2021/01/28 10:43:45;;;;;;;9.85;6.43;;;;;;;;;;5114625;28;20204;-56
2021/01/28 10:46:11;;;;;;;14.68;7.82;;;;;;;;;;5114867;28;20228;-59
2021/01/28 10:48:38;;;;;;;8.80;6.10;;;;;;;;;;5114990;28;20207;-58
2021/01/28 10:51:05;;;;;;;9.85;6.60;;;;;;;;;;5114826;28;20210;-58
2021/01/28 10:53:34;;;;;;;9.85;6.53;;;;;;;;;;5114503;28;20627;-59
2021/01/28 10:56:01;;;;;;;11.27;7.15;;;;;;;;;;5114838;28;20272;-57
2021/01/28 10:58:27;;;;;;;10.95;7.40;;;;;;;;;;5114163;28;20586;-57
2021/01/28 11:00:56;;;;;;;9.23;6.35;;;;;;;;;;5114371;28;20200;-58
2021/01/28 11:03:23;;;;;;;10.70;6.65;;;;;;;;;;5114717;28;20218;-57
2021/01/28 11:05:50;;;;;;;10.85;8.00;;;;;;;;;;5114027;28;20231;-57
2021/01/28 11:08:17;;;;;;;13.85;8.18;;;;;;;;;;5114361;27;20204;-57
2021/01/28 11:10:43;;;;;;;12.80;8.65;;;;;;;;;;5113964;28;20263;-57
2021/01/28 11:13:10;;;;;;;14.35;7.90;;;;;;;;;;5114095;27;20199;-57
2021/01/28 11:15:37;;;;;;;13.30;8.50;;;;;;;;;;5113253;28;20227;-58
2021/01/28 11:18:06;;;;;;;8.88;7.22;;;;;;;;;;5114377;28;20191;-57
2021/01/28 11:20:32;;;;;;;12.63;8.15;;;;;;;;;;5114427;28;20349;-58
2021/01/28 11:23:00;;;;;;;13.60;8.60;;;;;;;;;;5113854;28;20226;-57
2021/01/28 11:25:27;;;;;;;10.73;7.95;;;;;;;;;;5113440;28;20702;-58
2021/01/28 11:27:54;;;;;;;11.18;8.45;;;;;;;;;;5113763;28;20246;-58
2021/01/28 11:30:22;;;;;;;11.10;8.85;;;;;;;;;;5113966;28;20204;-58
2021/01/28 11:32:49;;;;;;;13.20;8.50;;;;;;;;;;5113779;28;20203;-57
2021/01/28 11:35:19;;;;;;;11.40;7.75;;;;;;;;;;5113922;28;20223;-58
2021/01/28 11:37:45;;;;;;;11.15;8.55;;;;;;;;;;5113774;28;20233;-58
2021/01/28 11:40:14;;;;;;;13.82;8.45;;;;;;;;;;5113729;28;20199;-58
2021/01/28 11:42:41;;;;;;;9.65;8.13;;;;;;;;;;5113544;28;20196;-58
2021/01/28 11:45:08;;;;;;;12.80;8.15;;;;;;;;;;5113084;28;20597;-57
2021/01/28 11:47:37;;;;;;;14.07;9.70;;;;;;;;;;5112931;28;20579;-58
2021/01/28 11:50:04;;;;;;;14.93;8.95;;;;;;;;;;5113132;28;20225;-58
2021/01/28 11:52:31;;;;;;;12.13;8.52;;;;;;;;;;5113551;28;20196;-58
2021/01/28 11:54:58;;;;;;;10.32;8.40;;;;;;;;;;5113251;28;20575;-59
2021/01/28 11:57:25;;;;;;;11.32;8.32;;;;;;;;;;5113219;28;20207;-57
2021/01/28 11:59:52;;;;;;;13.38;9.65;;;;;;;;;;5113033;28;20211;-57
2021/01/28 12:02:18;;;;;;;12.68;9.82;;;;;;;;;;5113124;28;20227;-58
2021/01/28 12:04:45;;;;;;;13.55;9.95;;;;;;;;;;5113242;28;20273;-58
2021/01/28 12:07:12;;;;;;;12.57;9.35;;;;;;;;;;5113516;28;20614;-58
2021/01/28 12:09:40;;;;;;;14.82;9.80;;;;;;;;;;5113020;28;20249;-58
2021/01/28 12:12:06;;;;;;;13.07;9.60;;;;;;;;;;5113831;28;20225;-58
2021/01/28 12:14:33;;;;;;;11.68;8.65;;;;;;;;;;5113349;28;20219;-57
2021/01/28 12:17:00;;;;;;;12.30;9.50;;;;;;;;;;5113626;28;20246;-58
2021/01/28 12:19:27;;;;;;;12.18;9.95;;;;;;;;;;5113597;28;20276;-59
2021/01/28 12:21:53;;;;;;;15.60;10.80;;;;;;;;;;5114687;28;20327;-58
2021/01/28 12:24:20;;;;;;;13.25;9.55;;;;;;;;;;5114282;28;20227;-58
2021/01/28 12:26:48;;;;;;;14.13;11.50;;;;;;;;;;5113432;28;20223;-58
2021/01/28 12:29:14;;;;;;;14.63;11.90;;;;;;;;;;5117144;28;20203;-58
2021/01/28 12:31:41;;;;;;;14.82;10.60;;;;;;;;;;5118063;28;20682;-58
2021/01/28 12:34:08;;;;;;;16.90;10.75;;;;;;;;;;5117273;28;20256;-57
2021/01/28 12:36:35;;;;;;;14.50;10.10;;;;;;;;;;5117435;28;20195;-58
2021/01/28 12:39:01;;;;;;;18.08;12.20;;;;;;;;;;5117092;28;20701;-58
2021/01/28 12:41:28;;;;;;;13.32;10.90;;;;;;;;;;5117037;28;20221;-57
2021/01/28 12:43:56;;;;;;;15.10;10.98;;;;;;;;;;5116685;28;20227;-57
2021/01/28 12:46:23;;;;;;;18.65;11.02;;;;;;;;;;5117228;28;20219;-57
2021/01/28 12:48:49;;;;;;;13.07;10.38;;;;;;;;;;5116578;28;20226;-57
2021/01/28 12:51:16;;;;;;;12.07;10.15;;;;;;;;;;5117034;28;20659;-57
2021/01/28 12:53:43;;;;;;;14.73;10.43;;;;;;;;;;5116834;28;20199;-57
2021/01/28 12:56:09;;;;;;;16.02;10.90;;;;;;;;;;5116827;28;20260;-57
2021/01/28 12:58:36;;;;;;;13.95;10.20;;;;;;;;;;5117085;28;20199;-58
2021/01/28 13:01:04;;;;;;;14.77;10.70;;;;;;;;;;5117039;28;20195;-58
2021/01/28 13:03:31;;;;;;;18.38;11.60;;;;;;;;;;5116247;28;20260;-56
2021/01/28 13:05:57;;;;;;;14.30;11.23;;;;;;;;;;5116450;28;20211;-59
2021/01/28 13:08:24;;;;;;;14.50;10.82;;;;;;;;;;5117178;28;20220;-57
2021/01/28 13:10:51;;;;;;;15.13;12.30;;;;;;;;;;5117143;28;20200;-58
2021/01/28 13:13:18;;;;;;;16.23;11.57;;;;;;;;;;5116816;28;20251;-58
2021/01/28 13:15:45;;;;;;;16.63;12.48;;;;;;;;;;5117182;28;20222;-57
2021/01/28 13:18:13;;;;;;;23.33;11.60;;;;;;;;;;5118944;28;20192;-58
2021/01/28 13:20:40;;;;;;;17.05;12.80;;;;;;;;;;5119257;28;20199;-58
2021/01/28 13:23:06;;;;;;;15.65;11.85;;;;;;;;;;5120822;28;20207;-58
2021/01/28 13:25:33;;;;;;;16.95;12.52;;;;;;;;;;5118062;28;20224;-57
2021/01/28 13:28:00;;;;;;;17.95;12.75;;;;;;;;;;5116707;28;20222;-57
2021/01/28 13:30:28;;;;;;;16.98;13.27;;;;;;;;;;5117192;28;20225;-58
2021/01/28 13:32:55;;;;;;;17.25;11.48;;;;;;;;;;5117257;28;20231;-58
2021/01/28 13:35:24;;;;;;;16.67;12.50;;;;;;;;;;5116058;28;20603;-57
2021/01/28 13:37:52;;;;;;;16.95;11.73;;;;;;;;;;5116315;28;20577;-58
2021/01/28 13:40:21;;;;;;;19.70;12.52;;;;;;;;;;5115942;28;20210;-58
2021/01/28 13:42:47;;;;;;;22.35;15.73;;;;;;;;;;5116116;28;20207;-57
2021/01/28 13:45:15;;;;;;;19.65;12.85;;;;;;;;;;5115674;28;20227;-58
2021/01/28 13:47:43;;;;;;;19.95;12.68;;;;;;;;;;5115954;28;20219;-58
2021/01/28 13:50:10;;;;;;;18.00;12.73;;;;;;;;;;5116033;28;20255;-58
2021/01/28 13:52:38;;;;;;;19.15;13.20;;;;;;;;;;5115974;28;20211;-58
2021/01/28 13:55:06;;;;;;;17.35;10.40;;;;;;;;;;5117371;28;20220;-60
2021/01/28 13:57:33;;;;;;;13.80;9.98;;;;;;;;;;5117648;28;20227;-58
2021/01/28 13:59:59;;;;;;;17.42;10.77;;;;;;;;;;5118144;28;20591;-57
2021/01/28 14:02:26;;;;;;;14.25;9.23;;;;;;;;;;5116931;28;20686;-58
2021/01/28 14:04:53;;;;;;;15.55;11.02;;;;;;;;;;5116411;28;20227;-58
2021/01/28 14:07:19;;;;;;;15.20;10.50;;;;;;;;;;5117204;28;20223;-59
2021/01/28 14:09:47;;;;;;;14.48;10.55;;;;;;;;;;5118275;28;20614;-58
2021/01/28 14:12:14;;;;;;;15.30;9.52;;;;;;;;;;5117244;28;20207;-58
2021/01/28 14:14:41;;;;;;;11.65;8.48;;;;;;;;;;5117552;28;20276;-56
2021/01/28 14:17:08;;;;;;;11.15;8.27;;;;;;;;;;5117675;28;20203;-59
2021/01/28 14:19:35;;;;;;;12.15;8.38;;;;;;;;;;5116783;28;20200;-58
2021/01/28 14:22:01;;;;;;;11.88;7.93;;;;;;;;;;5116003;28;20206;-58
2021/01/28 14:24:28;;;;;;;13.18;9.13;;;;;;;;;;5115843;28;20223;-58
2021/01/28 14:26:58;;;;;;;12.25;8.18;;;;;;;;;;5116279;28;20241;-58
2021/01/28 14:29:24;;;;;;;12.70;9.30;;;;;;;;;;5115768;28;20318;-58
2021/01/28 14:31:51;;;;;;;13.20;9.23;;;;;;;;;;5116987;28;20206;-57
2021/01/28 14:34:18;;;;;;;12.90;8.98;;;;;;;;;;5117191;28;20219;-57
2021/01/28 14:36:45;;;;;;;14.70;9.40;;;;;;;;;;5116268;28;20207;-56